Time;durP1;ratioP1;P1;durP2;ratioP2;P2;SDS_P1;SDS_P2;PMS_P1;PMS_P2;Temp;Humidity;BMP_temperature;BMP_pressure;BME280_temperature;BME280_humidity;BME280_pressure;Samples;Min_cycle;Max_cycle;Signal;HPM_P1;HPM_P2
2021/05/10 00:19:56;;;;;;;5.65;1.27;;;12.60;98.20;;;;;;6355501;22;20446;-94
2021/05/10 00:24:00;;;;;;;3.00;1.17;;;12.30;98.80;;;;;;6330881;22;20383;-95
2021/05/10 00:27:41;;;;;;;2.10;1.20;;;12.20;99.20;;;;;;6156482;23;20485;-95
2021/05/10 01:00:56;;;;;;;4.40;1.10;;;12.10;99.90;;;;;;6355885;22;20365;-95
2021/05/10 01:04:13;;;;;;;1.67;1.17;;;11.90;99.90;;;;;;6138465;23;20456;-94
2021/05/10 01:07:47;;;;;;;4.15;1.30;;;11.90;99.90;;;;;;6141262;23;20408;-96
2021/05/10 01:11:09;;;;;;;3.00;1.20;;;12.20;99.90;;;;;;6039509;23;20428;-95
2021/05/10 01:14:27;;;;;;;2.25;1.13;;;12.30;99.90;;;;;;6087760;23;20401;-95
2021/05/10 01:17:30;;;;;;;1.23;1.10;;;12.00;99.90;;;;;;6074250;23;20509;-94
2021/05/10 01:20:48;;;;;;;2.55;1.23;;;11.90;99.90;;;;;;6090361;23;20453;-94
2021/05/10 01:24:10;;;;;;;4.93;1.30;;;11.80;99.90;;;;;;6055057;23;20369;-94
2021/05/10 01:27:02;;;;;;;3.92;1.10;;;11.60;99.90;;;;;;5959936;24;20408;-95
2021/05/10 01:30:53;;;;;;;1.93;1.40;;;11.50;99.90;;;;;;5969737;24;20404;-96
2021/05/10 01:34:40;;;;;;;1.30;1.02;;;11.60;99.90;;;;;;5969726;23;20422;-94
2021/05/10 01:50:36;;;;;;;1.63;1.20;;;11.60;99.90;;;;;;6352607;22;20434;-95
2021/05/10 01:54:11;;;;;;;3.03;1.37;;;12.30;99.90;;;;;;6342971;22;20381;-94
2021/05/10 01:57:21;;;;;;;1.88;1.08;;;12.20;99.90;;;;;;6264868;22;20380;-96
2021/05/10 02:00:45;;;;;;;3.53;1.20;;;11.90;99.90;;;;;;6287963;22;20384;-95
2021/05/10 02:04:00;;;;;;;2.72;1.20;;;11.40;99.90;;;;;;6289512;22;20488;-95
2021/05/10 02:07:06;;;;;;;3.60;1.45;;;10.80;99.90;;;;;;6287811;22;20356;-95
2021/05/10 02:10:13;;;;;;;3.20;1.50;;;10.50;99.90;;;;;;6288349;22;20392;-95
2021/05/10 02:13:01;;;;;;;2.90;1.42;;;10.70;99.90;;;;;;6283881;22;20408;-95
2021/05/10 02:16:11;;;;;;;1.73;1.30;;;10.80;99.90;;;;;;6267694;22;20380;-95
2021/05/10 02:19:28;;;;;;;1.73;1.30;;;10.70;99.90;;;;;;6212538;23;20392;-93
2021/05/10 02:23:07;;;;;;;4.28;1.17;;;10.30;99.90;;;;;;6142254;23;20392;-94
2021/05/10 02:26:08;;;;;;;2.70;1.20;;;10.40;99.90;;;;;;6089816;23;20441;-95
2021/05/10 02:29:01;;;;;;;2.30;1.40;;;10.40;99.90;;;;;;6092268;23;20400;-95
2021/05/10 02:32:25;;;;;;;1.83;1.10;;;10.50;99.90;;;;;;6152693;22;20394;-96
2021/05/10 02:35:46;;;;;;;1.70;1.05;;;10.50;99.90;;;;;;6327920;22;20386;-93
2021/05/10 02:39:07;;;;;;;1.80;1.10;;;10.80;99.90;;;;;;6250579;22;20362;-94
2021/05/10 02:42:08;;;;;;;1.80;1.00;;;10.90;99.90;;;;;;6300925;22;20358;-95
2021/05/10 02:51:21;;;;;;;12.77;7.47;;;11.70;99.90;;;;;;6352553;22;20364;-93
2021/05/10 02:54:31;;;;;;;22.63;12.73;;;11.80;99.90;;;;;;6351065;22;20412;-94
2021/05/10 02:57:33;;;;;;;11.40;4.72;;;11.80;99.90;;;;;;6326485;22;20361;-94
2021/05/10 03:00:51;;;;;;;3.88;2.20;;;11.80;99.90;;;;;;6292040;22;20821;-95
2021/05/10 03:04:51;;;;;;;8.20;1.77;;;11.80;99.90;;;;;;6263803;22;20461;-94
2021/05/10 03:07:58;;;;;;;2.90;1.30;;;11.50;99.90;;;;;;6219328;23;20421;-94
2021/05/10 03:11:29;;;;;;;2.03;1.20;;;10.90;99.90;;;;;;6260602;23;20400;-95
2021/05/10 03:14:46;;;;;;;3.58;1.35;;;10.80;99.90;;;;;;6254241;23;20398;-95
2021/05/10 03:18:46;;;;;;;2.78;1.25;;;10.60;99.90;;;;;;6259953;23;20401;-95
2021/05/10 03:26:49;;;;;;;2.50;1.33;;;10.50;99.90;;;;;;6287532;22;20350;-96
2021/05/10 03:30:46;;;;;;;2.75;1.30;;;10.20;99.90;;;;;;6294159;22;20530;-96
2021/05/10 03:34:47;;;;;;;2.53;1.40;;;10.20;99.90;;;;;;6209968;23;20476;-96
2021/05/10 04:02:31;;;;;;;2.08;0.93;;;10.80;99.90;;;;;;6280208;22;20360;-96
2021/05/10 06:39:43;;;;;;;2.35;0.90;;;23.60;58.50;;;;;;6314146;22;20394;-95
2021/05/10 06:45:57;;;;;;;2.10;0.90;;;24.30;53.50;;;;;;6275040;22;20474;-96
2021/05/10 06:48:57;;;;;;;4.68;1.08;;;24.60;54.10;;;;;;6279082;22;20452;-96
2021/05/10 06:51:23;;;;;;;2.03;0.93;;;24.90;51.30;;;;;;6275804;22;20411;-95
2021/05/10 06:53:50;;;;;;;2.47;0.93;;;24.60;54.80;;;;;;6287162;22;20395;-96
2021/05/10 06:56:17;;;;;;;1.90;0.85;;;25.10;55.80;;;;;;6303267;22;20395;-95
2021/05/10 06:58:44;;;;;;;3.33;0.90;;;25.80;55.00;;;;;;6299837;22;20458;-95
2021/05/10 07:01:10;;;;;;;3.10;0.90;;;25.70;51.90;;;;;;6299111;22;20407;-94
2021/05/10 07:03:37;;;;;;;3.55;0.90;;;24.90;50.30;;;;;;6276952;22;20844;-95
2021/05/10 07:06:04;;;;;;;2.83;1.10;;;24.50;52.30;;;;;;6277108;22;20388;-96
2021/05/10 07:08:30;;;;;;;2.37;0.90;;;24.70;50.10;;;;;;6276418;22;20849;-95
2021/05/10 07:10:57;;;;;;;2.28;1.00;;;25.20;53.50;;;;;;6281599;22;20465;-96
2021/05/10 07:13:24;;;;;;;1.35;0.88;;;25.80;54.30;;;;;;6282478;22;20475;-95
2021/05/10 07:15:50;;;;;;;3.80;0.90;;;26.30;50.20;;;;;;6287625;22;20474;-95
2021/05/10 07:18:18;;;;;;;2.10;0.80;;;26.30;51.70;;;;;;6286624;22;20386;-96
2021/05/10 07:20:47;;;;;;;1.75;0.80;;;26.20;48.90;;;;;;6314040;22;20409;-96
2021/05/10 07:23:16;;;;;;;2.03;0.90;;;25.90;47.20;;;;;;6288663;22;20402;-96
2021/05/10 07:25:48;;;;;;;1.85;0.75;;;26.00;49.40;;;;;;6289603;22;20883;-96
2021/05/10 07:28:19;;;;;;;2.70;0.80;;;25.50;51.00;;;;;;6259771;22;20806;-94
2021/05/10 07:30:46;;;;;;;1.30;0.80;;;25.60;44.90;;;;;;6280995;22;20469;-93
2021/05/10 07:33:13;;;;;;;3.10;0.80;;;25.30;46.90;;;;;;6280460;22;20867;-94
2021/05/10 07:35:40;;;;;;;1.77;0.77;;;25.70;48.30;;;;;;6280692;22;20379;-93
2021/05/10 07:38:07;;;;;;;2.80;0.77;;;25.70;43.60;;;;;;6280737;22;20386;-94
2021/05/10 07:40:33;;;;;;;1.90;0.82;;;26.00;42.80;;;;;;6281495;22;20396;-94
2021/05/10 07:43:01;;;;;;;1.88;0.70;;;25.60;40.90;;;;;;6281336;22;20385;-93
2021/05/10 07:45:28;;;;;;;1.10;0.70;;;26.30;47.30;;;;;;6280640;22;20383;-94
2021/05/10 07:47:56;;;;;;;2.58;0.80;;;26.40;43.20;;;;;;6283600;22;20421;-93
2021/05/10 07:50:23;;;;;;;1.83;1.00;;;25.80;44.20;;;;;;6283583;22;20855;-92
2021/05/10 07:52:51;;;;;;;1.77;0.80;;;25.20;44.90;;;;;;6283718;22;20363;-96
2021/05/10 07:55:19;;;;;;;3.03;0.95;;;24.60;47.50;;;;;;6283824;22;20688;-92
2021/05/10 07:57:46;;;;;;;1.57;0.97;;;24.60;47.30;;;;;;6282293;22;20386;-93
2021/05/10 08:00:21;;;;;;;4.95;0.80;;;24.40;47.20;;;;;;6292927;22;20386;-93
2021/05/10 08:02:51;;;;;;;3.17;1.00;;;24.30;51.80;;;;;;6300514;22;20409;-94
2021/05/10 08:05:17;;;;;;;1.67;0.90;;;24.50;47.70;;;;;;6299373;22;20393;-95
2021/05/10 08:07:44;;;;;;;1.80;0.70;;;24.40;47.90;;;;;;6291485;22;20406;-94
2021/05/10 08:10:12;;;;;;;1.25;0.80;;;24.30;45.20;;;;;;6285762;22;20851;-92
2021/05/10 08:12:38;;;;;;;1.77;0.70;;;23.60;49.40;;;;;;6284904;22;20370;-93
2021/05/10 08:15:06;;;;;;;0.95;0.60;;;23.70;45.70;;;;;;6284302;22;20389;-93
2021/05/10 08:17:34;;;;;;;1.88;0.80;;;23.70;45.50;;;;;;6284302;22;20390;-94
2021/05/10 08:20:02;;;;;;;2.05;0.90;;;23.80;47.80;;;;;;6281581;22;20404;-93
2021/05/10 08:22:29;;;;;;;2.45;0.82;;;23.90;44.20;;;;;;6280668;22;20434;-93
2021/05/10 08:24:57;;;;;;;2.20;0.70;;;24.10;44.40;;;;;;6278344;22;20368;-92
2021/05/10 08:27:23;;;;;;;1.60;0.80;;;24.10;44.30;;;;;;6282154;22;20381;-96
2021/05/10 08:29:51;;;;;;;1.77;0.70;;;24.30;44.30;;;;;;6284279;22;20392;-96
2021/05/10 08:32:18;;;;;;;1.00;0.75;;;24.50;41.10;;;;;;6279617;22;20410;-94
2021/05/10 08:34:44;;;;;;;1.75;0.70;;;24.60;40.40;;;;;;6276748;22;20384;-93
2021/05/10 08:42:47;;;;;;;1.30;0.60;;;25.20;43.00;;;;;;6319479;22;20386;-92
2021/05/10 08:45:22;;;;;;;1.63;0.90;;;25.50;43.30;;;;;;6263753;22;20882;-95
2021/05/10 08:47:49;;;;;;;0.77;0.70;;;25.60;41.30;;;;;;6281569;22;20392;-94
2021/05/10 08:50:16;;;;;;;2.25;0.70;;;25.60;40.30;;;;;;6282732;22;20387;-96
2021/05/10 08:52:43;;;;;;;1.10;0.60;;;25.70;42.80;;;;;;6284805;22;20458;-91
2021/05/10 08:55:19;;;;;;;2.20;0.70;;;26.20;38.60;;;;;;6294405;22;20373;-96
2021/05/10 09:13:59;;;;;;;2.45;0.80;;;27.10;40.80;;;;;;6245565;22;20382;-96
2021/05/10 10:25:08;;;;;;;4.23;1.83;;;25.20;50.10;;;;;;6293929;22;20408;-96
2021/05/10 10:43:34;;;;;;;4.25;1.20;;;25.20;44.60;;;;;;6264654;22;20370;-91
2021/05/10 10:46:22;;;;;;;2.77;1.00;;;25.00;45.80;;;;;;6312866;22;20401;-92
2021/05/10 10:48:49;;;;;;;5.33;1.30;;;24.80;40.50;;;;;;6312311;22;20392;-92
2021/05/10 10:51:18;;;;;;;4.40;1.15;;;25.10;45.20;;;;;;6314435;22;20381;-90
2021/05/10 10:53:49;;;;;;;4.15;1.17;;;25.50;46.00;;;;;;6313635;22;20381;-91
2021/05/10 10:56:16;;;;;;;4.00;1.13;;;25.20;41.10;;;;;;6338570;22;20365;-90
2021/05/10 10:58:46;;;;;;;2.03;1.02;;;25.30;46.60;;;;;;6332519;22;20383;-90
2021/05/10 11:01:19;;;;;;;5.83;1.30;;;25.70;43.60;;;;;;6313375;22;20769;-92
2021/05/10 11:03:48;;;;;;;4.40;1.00;;;25.90;43.40;;;;;;6312512;22;20388;-91
2021/05/10 11:06:17;;;;;;;1.67;0.87;;;25.80;38.80;;;;;;6312578;22;20422;-92
2021/05/10 11:08:48;;;;;;;2.53;1.10;;;25.90;40.90;;;;;;6312362;22;20761;-91
2021/05/10 11:11:29;;;;;;;2.30;0.80;;;25.70;35.90;;;;;;6312143;22;20396;-90
2021/05/10 11:13:59;;;;;;;6.53;0.90;;;25.70;33.40;;;;;;6311348;22;20377;-91
2021/05/10 11:17:01;;;;;;;2.17;1.00;;;25.80;35.80;;;;;;6312285;22;20448;-91
2021/05/10 11:19:35;;;;;;;4.70;1.20;;;26.10;40.30;;;;;;6177345;23;20400;-91
2021/05/10 11:22:23;;;;;;;3.67;0.80;;;26.50;38.50;;;;;;6190185;23;20458;-91
2021/05/10 11:24:53;;;;;;;1.17;0.70;;;26.70;36.90;;;;;;6189158;23;20891;-90
2021/05/10 11:27:31;;;;;;;2.05;0.80;;;26.50;32.50;;;;;;6188696;23;20375;-91
2021/05/10 11:29:57;;;;;;;1.17;0.70;;;26.20;33.60;;;;;;6188812;23;20387;-91
2021/05/10 12:05:30;;;;;;;3.45;0.80;;;28.80;36.40;;;;;;6243783;23;20396;-96
2021/05/10 13:31:01;;;;;;;2.28;0.80;;;30.10;33.60;;;;;;6233375;23;20436;-92
2021/05/10 13:37:39;;;;;;;2.97;0.85;;;28.90;31.40;;;;;;6227598;23;20391;-94
2021/05/10 13:41:50;;;;;;;2.63;0.80;;;30.50;32.30;;;;;;6166246;23;20407;-93
2021/05/10 13:45:53;;;;;;;4.70;3.05;;;30.50;30.30;;;;;;6011828;23;20487;-94
2021/05/10 13:50:02;;;;;;;4.50;1.20;;;31.20;31.00;;;;;;6007442;23;20379;-92
2021/05/10 13:54:03;;;;;;;4.20;1.10;;;30.70;29.00;;;;;;6028386;23;20508;-95
2021/05/10 13:57:17;;;;;;;5.75;1.58;;;30.60;31.90;;;;;;5987547;23;20383;-92
2021/05/10 14:00:37;;;;;;;4.88;0.98;;;31.50;37.40;;;;;;5930807;24;20512;-92
2021/05/10 14:06:31;;;;;;;4.43;0.90;;;31.20;31.00;;;;;;6333981;22;20853;-93
2021/05/10 14:09:01;;;;;;;7.47;0.93;;;32.00;36.10;;;;;;6317051;22;20369;-94
2021/05/10 14:11:53;;;;;;;5.85;1.17;;;31.30;30.90;;;;;;6306405;22;20373;-95
2021/05/10 14:15:00;;;;;;;3.00;0.90;;;31.50;31.60;;;;;;6364462;22;20390;-95
2021/05/10 14:18:01;;;;;;;3.17;0.87;;;31.90;34.60;;;;;;6336398;22;20353;-96
2021/05/10 14:29:06;;;;;;;3.97;0.90;;;30.20;30.60;;;;;;6258205;22;20376;-95
2021/05/10 14:32:50;;;;;;;3.08;0.90;;;31.40;34.20;;;;;;6238701;23;20386;-96
2021/05/10 14:35:30;;;;;;;5.22;1.05;;;32.40;29.90;;;;;;6239357;23;20395;-95
2021/05/10 14:41:12;;;;;;;5.15;1.10;;;31.60;32.90;;;;;;6292040;22;20388;-96
2021/05/10 14:43:42;;;;;;;5.80;0.90;;;31.00;34.40;;;;;;6265812;22;20415;-95
2021/05/10 14:46:10;;;;;;;6.33;1.27;;;30.20;32.10;;;;;;6262746;22;20375;-94
2021/05/10 14:48:40;;;;;;;3.25;1.00;;;29.80;35.50;;;;;;6264404;22;20472;-95
2021/05/10 14:51:17;;;;;;;3.27;1.10;;;30.10;32.70;;;;;;6303461;22;20364;-95
2021/05/10 14:53:51;;;;;;;3.83;1.00;;;29.40;30.60;;;;;;6298206;22;20376;-92
2021/05/10 14:56:18;;;;;;;6.55;1.08;;;29.90;35.30;;;;;;6256992;22;20387;-92
2021/05/10 14:58:45;;;;;;;3.00;1.00;;;31.20;34.10;;;;;;6250779;22;20388;-93
2021/05/10 15:01:18;;;;;;;3.65;0.90;;;31.00;32.30;;;;;;6252121;22;20395;-93
2021/05/10 15:03:46;;;;;;;3.30;0.98;;;31.10;30.50;;;;;;6250209;22;20487;-93
2021/05/10 15:06:14;;;;;;;6.05;1.00;;;31.20;32.90;;;;;;6250548;22;20390;-93
2021/05/10 15:08:43;;;;;;;2.60;0.75;;;30.30;32.20;;;;;;6252485;22;20375;-95
2021/05/10 15:11:30;;;;;;;4.30;1.00;;;30.10;32.70;;;;;;6287657;22;20888;-94
2021/05/10 15:13:57;;;;;;;2.73;0.90;;;29.40;32.10;;;;;;6254083;22;20690;-95
2021/05/10 15:16:24;;;;;;;1.92;1.00;;;28.40;35.10;;;;;;6251628;22;20515;-94
2021/05/10 15:18:51;;;;;;;4.07;0.90;;;28.40;34.60;;;;;;6250215;22;20792;-94
2021/05/10 15:21:19;;;;;;;3.03;0.82;;;28.70;33.50;;;;;;6261102;22;20368;-94
2021/05/10 15:23:47;;;;;;;2.70;0.83;;;29.10;35.70;;;;;;6275130;22;20379;-94
2021/05/10 15:26:16;;;;;;;2.72;1.00;;;29.40;37.50;;;;;;6251434;22;20392;-94
2021/05/10 15:28:43;;;;;;;2.78;0.90;;;29.70;34.60;;;;;;6266390;22;20391;-94
2021/05/10 15:31:09;;;;;;;4.10;1.10;;;29.90;31.30;;;;;;6259584;22;20464;-94
2021/05/10 15:33:36;;;;;;;3.33;0.80;;;30.30;32.00;;;;;;6252769;22;20455;-95
2021/05/10 15:36:04;;;;;;;4.43;0.95;;;30.00;31.50;;;;;;6254504;22;20380;-94
2021/05/10 15:38:31;;;;;;;0.85;0.70;;;29.20;31.30;;;;;;6254022;22;20467;-95
2021/05/10 15:40:58;;;;;;;4.78;1.15;;;28.70;30.80;;;;;;6277253;22;20930;-94
2021/05/10 15:43:24;;;;;;;3.63;0.67;;;28.40;33.20;;;;;;6314453;22;20409;-94
2021/05/10 15:45:51;;;;;;;2.55;0.80;;;28.00;32.10;;;;;;6315564;22;20412;-94
2021/05/10 15:48:18;;;;;;;1.92;0.80;;;27.50;34.80;;;;;;6317524;22;20396;-94
2021/05/10 15:50:44;;;;;;;2.58;0.70;;;27.40;34.80;;;;;;6313498;22;20975;-94
2021/05/10 15:53:13;;;;;;;2.20;0.88;;;27.00;33.80;;;;;;6317492;22;20400;-94
2021/05/10 15:55:40;;;;;;;3.17;0.80;;;26.80;35.20;;;;;;6317703;22;20408;-93
2021/05/10 15:58:07;;;;;;;3.20;0.82;;;27.20;35.00;;;;;;6314565;22;20411;-96
2021/05/10 16:00:34;;;;;;;3.60;0.90;;;27.30;34.70;;;;;;6318915;22;20389;-96
2021/05/10 16:03:00;;;;;;;5.75;0.90;;;27.30;33.80;;;;;;6323539;22;20456;-96
2021/05/10 16:05:47;;;;;;;3.08;0.88;;;27.10;34.70;;;;;;6322410;22;20391;-96
2021/05/10 16:08:13;;;;;;;4.00;0.90;;;27.20;32.90;;;;;;6320630;22;20385;-94
2021/05/10 16:10:44;;;;;;;2.30;0.77;;;27.40;34.80;;;;;;6320552;22;20861;-95
2021/05/10 16:13:15;;;;;;;2.30;0.90;;;27.40;35.50;;;;;;6351029;22;20373;-94
2021/05/10 16:15:41;;;;;;;4.30;0.80;;;27.50;33.80;;;;;;6319460;22;20385;-95
2021/05/10 16:18:08;;;;;;;1.40;0.70;;;27.80;38.30;;;;;;6314638;22;20385;-96
2021/05/10 16:20:36;;;;;;;4.60;1.02;;;28.00;35.00;;;;;;6318644;22;20422;-96
2021/05/10 16:23:06;;;;;;;5.07;1.10;;;27.80;37.10;;;;;;6300292;22;20928;-96
2021/05/10 16:25:33;;;;;;;4.07;1.10;;;28.00;36.70;;;;;;6328236;22;20388;-96
2021/05/10 16:28:04;;;;;;;3.33;0.80;;;27.70;36.30;;;;;;6325754;22;20443;-96
2021/05/10 16:30:32;;;;;;;3.53;1.00;;;27.20;37.00;;;;;;6323601;22;20837;-96
2021/05/10 16:33:02;;;;;;;3.27;1.00;;;26.60;37.70;;;;;;6291627;22;20675;-95
2021/05/10 16:35:31;;;;;;;7.27;1.17;;;26.20;40.70;;;;;;6320280;22;20405;-96
2021/05/10 16:43:46;;;;;;;3.17;1.20;;;25.70;41.00;;;;;;6329728;22;20377;-96
2021/05/10 16:46:21;;;;;;;4.47;1.20;;;26.10;42.90;;;;;;6239436;22;20402;-93
2021/05/10 16:48:48;;;;;;;5.75;1.50;;;25.90;41.30;;;;;;6283631;22;20778;-94
2021/05/10 16:51:15;;;;;;;4.13;0.98;;;25.80;43.20;;;;;;6282495;22;20382;-93
2021/05/10 16:53:41;;;;;;;2.75;1.15;;;25.50;43.20;;;;;;6285120;22;20445;-95
2021/05/10 16:56:08;;;;;;;3.97;1.17;;;25.60;44.40;;;;;;6288773;22;20436;-94
2021/05/10 17:01:13;;;;;;;2.95;1.13;;;25.50;44.60;;;;;;6342588;22;20385;-94
2021/05/10 17:03:40;;;;;;;2.88;1.20;;;25.40;46.80;;;;;;6312691;22;20385;-94
2021/05/10 17:06:06;;;;;;;7.22;1.25;;;25.10;45.60;;;;;;6313987;22;20388;-93
2021/05/10 17:08:33;;;;;;;2.30;1.20;;;24.90;47.50;;;;;;6315132;22;20480;-93
2021/05/10 17:10:59;;;;;;;3.78;1.20;;;24.60;47.40;;;;;;6314296;22;20376;-93
2021/05/10 17:13:26;;;;;;;2.23;1.20;;;24.70;48.10;;;;;;6313237;22;20388;-95
2021/05/10 17:15:53;;;;;;;2.60;1.25;;;24.50;46.80;;;;;;6314078;22;20709;-94
2021/05/10 17:18:33;;;;;;;3.45;1.20;;;24.40;46.80;;;;;;6315646;22;20408;-94
2021/05/10 17:21:02;;;;;;;4.85;1.10;;;24.20;47.30;;;;;;6316865;22;20365;-96
2021/05/10 17:23:31;;;;;;;3.78;1.10;;;23.80;48.50;;;;;;6318468;22;20406;-95
2021/05/10 17:25:59;;;;;;;5.43;1.30;;;23.50;49.30;;;;;;6317366;22;20694;-94
2021/05/10 17:28:26;;;;;;;6.18;1.70;;;23.20;49.60;;;;;;6313440;22;20885;-93
2021/05/10 17:30:53;;;;;;;5.10;1.42;;;23.00;51.60;;;;;;6313203;22;20412;-95
2021/05/10 17:33:26;;;;;;;4.82;1.30;;;22.60;51.40;;;;;;6326608;22;20452;-96
2021/05/10 17:36:03;;;;;;;4.78;1.23;;;22.40;52.10;;;;;;6334062;22;20361;-96
2021/05/10 17:38:34;;;;;;;5.13;1.23;;;22.10;51.70;;;;;;6333144;22;20395;-96
2021/05/10 17:41:07;;;;;;;5.35;1.27;;;21.80;53.40;;;;;;6318703;22;20449;-94
2021/05/10 17:43:34;;;;;;;3.70;1.30;;;21.70;54.10;;;;;;6325459;22;20865;-96
2021/05/10 17:46:28;;;;;;;3.75;1.40;;;21.50;55.20;;;;;;6328623;22;20396;-96
2021/05/10 17:48:56;;;;;;;3.35;1.30;;;21.30;57.40;;;;;;6324984;22;20380;-94
2021/05/10 17:51:24;;;;;;;3.53;1.15;;;21.20;56.10;;;;;;6322915;22;20471;-90
2021/05/10 17:53:54;;;;;;;3.60;1.20;;;21.20;56.50;;;;;;6302210;22;20381;-96
2021/05/10 17:56:38;;;;;;;3.67;1.20;;;21.20;54.70;;;;;;6290597;22;20382;-96
2021/05/10 18:16:56;;;;;;;3.83;1.30;;;20.50;54.90;;;;;;6339907;22;20381;-96
2021/05/10 18:20:00;;;;;;;2.72;1.02;;;20.50;55.30;;;;;;6290931;22;20397;-96
2021/05/10 18:30:50;;;;;;;5.13;1.38;;;19.90;57.80;;;;;;6342819;22;20384;-96
2021/05/10 18:33:20;;;;;;;3.88;1.33;;;19.70;58.00;;;;;;6301567;22;20420;-94
2021/05/10 18:36:24;;;;;;;7.90;1.30;;;19.60;59.10;;;;;;6320378;22;20403;-95
2021/05/10 18:39:39;;;;;;;6.03;1.30;;;19.50;59.70;;;;;;6323210;22;20388;-95
2021/05/10 18:42:15;;;;;;;7.50;1.33;;;19.30;60.20;;;;;;6318274;22;20772;-94
2021/05/10 18:45:17;;;;;;;4.10;1.30;;;19.20;60.80;;;;;;6319378;22;20896;-94
2021/05/10 18:48:06;;;;;;;4.43;1.40;;;19.20;61.60;;;;;;6315544;22;20427;-94
2021/05/10 18:50:54;;;;;;;5.50;1.60;;;19.10;61.50;;;;;;6293733;22;20434;-94
2021/05/10 18:53:34;;;;;;;2.72;1.40;;;19.00;61.80;;;;;;6297382;22;20457;-96
2021/05/10 18:56:23;;;;;;;4.30;1.50;;;19.00;62.40;;;;;;6332229;22;20367;-94
2021/05/10 18:58:54;;;;;;;7.80;1.40;;;19.00;62.50;;;;;;6330304;22;20379;-96
2021/05/10 19:01:50;;;;;;;2.05;1.30;;;18.80;63.70;;;;;;6334788;22;20381;-96
2021/05/10 19:04:57;;;;;;;3.70;1.42;;;18.50;64.80;;;;;;6332189;22;20359;-94
2021/05/10 19:07:43;;;;;;;4.00;1.38;;;18.40;65.70;;;;;;6315788;22;20360;-95
2021/05/10 19:11:02;;;;;;;2.58;1.17;;;18.30;65.80;;;;;;6321062;22;20386;-95
2021/05/10 19:14:11;;;;;;;6.88;1.65;;;18.20;66.50;;;;;;6240844;23;20376;-94
2021/05/10 19:17:02;;;;;;;8.93;1.90;;;18.00;67.30;;;;;;6206683;23;20396;-93
2021/05/10 19:20:03;;;;;;;4.38;1.50;;;18.00;67.70;;;;;;6223352;23;20570;-94
2021/05/10 19:23:22;;;;;;;4.72;1.40;;;17.90;68.30;;;;;;6224380;23;20443;-95
2021/05/10 19:26:41;;;;;;;3.73;1.80;;;17.80;69.10;;;;;;6220113;23;20355;-96
2021/05/10 19:29:58;;;;;;;5.70;1.52;;;17.90;69.00;;;;;;6188018;23;20792;-96
2021/05/10 19:32:40;;;;;;;5.88;1.63;;;17.90;70.10;;;;;;6178010;23;20904;-94
2021/05/10 19:38:50;;;;;;;7.70;1.60;;;17.90;70.00;;;;;;6287925;22;20380;-95
2021/05/10 19:42:01;;;;;;;6.18;1.60;;;17.80;70.80;;;;;;6294175;22;20384;-95
2021/05/10 19:45:17;;;;;;;;;;;;;;;;;;;;;
2021/05/10 19:57:31;;;;;;;3.38;1.60;;;17.60;72.90;;;;;;6113004;23;20385;-95
2021/05/10 20:04:09;;;;;;;7.22;1.88;;;17.60;74.10;;;;;;6074699;23;20872;-96
2021/05/10 20:06:50;;;;;;;5.05;1.67;;;17.60;74.60;;;;;;6108178;23;20448;-96
2021/05/10 20:10:11;;;;;;;5.82;1.75;;;17.60;75.30;;;;;;6118131;23;20428;-96
2021/05/10 20:19:38;;;;;;;13.55;2.00;;;17.50;77.10;;;;;;6283708;22;20367;-96
2021/05/10 20:23:11;;;;;;;;;;;;;;;;;;;;;
2021/05/10 20:29:05;;;;;;;4.47;1.70;;;17.50;78.70;;;;;;6282844;22;21519;-96
2021/05/10 20:41:56;;;;;;;7.90;1.90;;;17.50;80.70;;;;;;6299596;22;20376;-96
2021/05/10 20:45:34;;;;;;;4.13;1.80;;;17.50;81.90;;;;;;6292029;22;20822;-96
2021/05/10 21:13:41;;;;;;;12.48;2.13;;;17.10;88.90;;;;;;6316000;22;20376;-96
2021/05/10 21:17:35;;;;;;;6.68;2.00;;;16.90;90.60;;;;;;6314884;22;20374;-96
2021/05/10 21:20:35;;;;;;;4.45;1.95;;;16.70;91.20;;;;;;6258483;22;20399;-96
2021/05/10 21:23:22;;;;;;;8.43;2.38;;;16.70;91.80;;;;;;6352170;22;20518;-96
2021/05/10 23:59:18;;;;;;;6.78;1.98;;;15.20;99.10;;;;;;6349394;22;20483;-96
